Time,TemperatureF,DewpointF,PressureIn,WindDirection,WindDirectionDegrees,WindSpeedMPH,WindSpeedGustMPH,Humidity,HourlyPrecipIn,Conditions,Clouds,dailyrainin,SoftwareType,DateUTC
2013-07-13 00:11:00,61.0,52.0,-100.00,North,0,0.0,3.0,72,-99.99,,,-99.99,,2013-07-13 06:11:00,
2013-07-13 00:43:00,61.0,52.0,-100.00,North,0,0.0,1.0,74,-99.99,,,-99.99,,2013-07-13 06:43:00,
2013-07-13 00:52:00,61.0,52.0,-100.00,North,0,0.0,1.0,74,-99.99,,,-99.99,,2013-07-13 06:52:00,
2013-07-13 01:33:00,60.0,52.0,-100.00,WNW,292,1.0,4.0,75,-99.99,,,-99.99,,2013-07-13 07:33:00,
2013-07-13 01:44:00,61.0,53.0,-100.00,ESE,107,4.0,5.0,75,-99.99,,,-99.99,,2013-07-13 07:44:00,
2013-07-13 02:01:00,60.0,53.0,-100.00,ENE,78,3.0,6.0,77,-99.99,,,-99.99,,2013-07-13 08:01:00,
2013-07-13 02:22:00,62.0,52.0,-100.00,North,0,0.0,3.0,70,-99.99,,,-99.99,,2013-07-13 08:22:00,
2013-07-13 02:52:00,62.0,52.0,-100.00,ESE,110,5.0,5.0,70,-99.99,,,-99.99,,2013-07-13 08:52:00,
2013-07-13 03:22:00,62.0,53.0,-100.00,ESE,114,4.0,6.0,70,-99.99,,,-99.99,,2013-07-13 09:22:00,
2013-07-13 04:11:00,62.0,53.0,-100.00,ENE,78,2.0,3.0,71,-99.99,,,-99.99,,2013-07-13 10:11:00,
2013-07-13 04:22:00,63.0,53.0,-100.00,NNE,33,3.0,4.0,69,-99.99,,,-99.99,,2013-07-13 10:22:00,
2013-07-13 04:43:00,60.0,53.0,-100.00,ENE,74,3.0,4.0,77,-99.99,,,-99.99,,2013-07-13 10:43:00,
2013-07-13 04:52:00,60.0,53.0,-100.00,ENE,74,3.0,4.0,77,-99.99,,,-99.99,,2013-07-13 10:52:00,
2013-07-13 05:11:00,62.0,53.0,-100.00,ENE,68,2.0,5.0,73,-99.99,,,-99.99,,2013-07-13 11:11:00,
2013-07-13 05:21:00,62.0,53.0,-100.00,ENE,68,2.0,5.0,73,-99.99,,,-99.99,,2013-07-13 11:21:00,
2013-07-13 05:32:00,62.0,53.0,-100.00,ENE,68,2.0,5.0,73,-99.99,,,-99.99,,2013-07-13 11:32:00,
2013-07-13 05:42:00,62.0,53.0,-100.00,SE,131,5.0,5.0,71,-99.99,,,-99.99,,2013-07-13 11:42:00,
2013-07-13 05:52:00,63.0,53.0,-100.00,East,84,1.0,5.0,71,-99.99,,,-99.99,,2013-07-13 11:52:00,
2013-07-13 06:12:00,62.0,53.0,-100.00,ESE,114,4.0,5.0,72,-99.99,,,-99.99,,2013-07-13 12:12:00,
2013-07-13 06:22:00,61.0,53.0,-100.00,North,0,2.0,3.0,75,-99.99,,,-99.99,,2013-07-13 12:22:00,
2013-07-13 06:32:00,61.0,53.0,-100.00,North,0,2.0,3.0,75,-99.99,,,-99.99,,2013-07-13 12:32:00,
2013-07-13 06:43:00,61.0,53.0,-100.00,WSW,238,5.0,6.0,74,-99.99,,,-99.99,,2013-07-13 12:43:00,
2013-07-13 06:52:00,61.0,53.0,-100.00,WSW,238,5.0,6.0,74,-99.99,,,-99.99,,2013-07-13 12:52:00,
2013-07-13 07:01:00,61.0,53.0,-100.00,WSW,238,5.0,6.0,74,-99.99,,,-99.99,,2013-07-13 13:01:00,
2013-07-13 07:11:00,61.0,53.0,-100.00,ENE,63,3.0,3.0,75,-99.99,,,-99.99,,2013-07-13 13:11:00,
2013-07-13 07:22:00,61.0,53.0,-100.00,ENE,63,3.0,3.0,75,-99.99,,,-99.99,,2013-07-13 13:22:00,
2013-07-13 07:53:00,60.0,54.0,-100.00,NE,43,2.0,4.0,80,-99.99,,,-99.99,,2013-07-13 13:53:00,
2013-07-13 08:02:00,60.0,54.0,-100.00,NE,45,2.0,4.0,78,-99.99,,,-99.99,,2013-07-13 14:02:00,
2013-07-13 08:11:00,61.0,54.0,-100.00,NNE,30,0.0,3.0,77,-99.99,,,-99.99,,2013-07-13 14:11:00,
2013-07-13 08:22:00,62.0,54.0,-100.00,ENE,67,1.0,2.0,75,-99.99,,,-99.99,,2013-07-13 14:22:00,
2013-07-13 08:43:00,63.0,54.0,-100.00,SSE,158,2.0,4.0,71,-99.99,,,-99.99,,2013-07-13 14:43:00,
2013-07-13 08:53:00,63.0,53.0,-100.00,SSW,200,2.0,4.0,70,-99.99,,,-99.99,,2013-07-13 14:53:00,
2013-07-13 09:02:00,63.0,53.0,-100.00,SSW,200,2.0,4.0,70,-99.99,,,-99.99,,2013-07-13 15:02:00,
2013-07-13 09:22:00,64.0,54.0,-100.00,WSW,251,2.0,3.0,68,-99.99,,,-99.99,,2013-07-13 15:22:00,
2013-07-13 09:33:00,64.0,54.0,-100.00,WSW,251,2.0,3.0,68,-99.99,,,-99.99,,2013-07-13 15:33:00,
2013-07-13 09:43:00,65.0,54.0,-100.00,ENE,60,1.0,2.0,66,-99.99,,,-99.99,,2013-07-13 15:43:00,
2013-07-13 09:53:00,66.0,54.0,-100.00,NW,322,2.0,3.0,65,-99.99,,,-99.99,,2013-07-13 15:53:00,
2013-07-13 10:11:00,68.0,54.0,-100.00,NW,305,1.0,3.0,62,-99.99,,,-99.99,,2013-07-13 16:11:00,
2013-07-13 10:22:00,68.0,54.0,-100.00,NW,305,1.0,3.0,62,-99.99,,,-99.99,,2013-07-13 16:22:00,
2013-07-13 10:32:00,68.0,53.0,-100.00,West,279,4.0,6.0,58,-99.99,,,-99.99,,2013-07-13 16:32:00,
2013-07-13 10:43:00,70.0,53.0,-100.00,West,273,5.0,8.0,54,-99.99,,,-99.99,,2013-07-13 16:43:00,
2013-07-13 10:53:00,70.0,53.0,-100.00,West,273,5.0,8.0,54,-99.99,,,-99.99,,2013-07-13 16:53:00,
2013-07-13 11:11:00,71.0,53.0,-100.00,WNW,297,9.0,12.0,52,-99.99,,,-99.99,,2013-07-13 17:11:00,
2013-07-13 11:22:00,70.0,51.0,-100.00,WNW,294,8.0,12.0,52,-99.99,,,-99.99,,2013-07-13 17:22:00,
2013-07-13 11:33:00,70.0,51.0,-100.00,WNW,294,8.0,12.0,52,-99.99,,,-99.99,,2013-07-13 17:33:00,
2013-07-13 11:42:00,70.0,52.0,-100.00,WNW,285,9.0,10.0,53,-99.99,,,-99.99,,2013-07-13 17:42:00,
2013-07-13 11:52:00,70.0,52.0,-100.00,WNW,292,9.0,13.0,52,-99.99,,,-99.99,,2013-07-13 17:52:00,
2013-07-13 12:11:00,72.0,52.0,-100.00,West,267,15.0,20.0,49,-99.99,,,-99.99,,2013-07-13 18:11:00,
2013-07-13 12:21:00,71.0,52.0,-100.00,West,277,11.0,17.0,50,-99.99,,,-99.99,,2013-07-13 18:21:00,
2013-07-13 12:32:00,71.0,52.0,-100.00,West,277,11.0,17.0,50,-99.99,,,-99.99,,2013-07-13 18:32:00,
2013-07-13 12:43:00,72.0,51.0,-100.00,WNW,300,2.0,11.0,47,-99.99,,,-99.99,,2013-07-13 18:43:00,
2013-07-13 12:52:00,72.0,51.0,-100.00,WNW,300,2.0,11.0,47,-99.99,,,-99.99,,2013-07-13 18:52:00,
2013-07-13 13:11:00,74.0,50.0,-100.00,WNW,284,1.0,11.0,42,-99.99,,,-99.99,,2013-07-13 19:11:00,
2013-07-13 13:22:00,75.0,50.0,-100.00,NW,310,2.0,7.0,40,-99.99,,,-99.99,,2013-07-13 19:22:00,
2013-07-13 13:32:00,74.0,48.0,-100.00,West,276,7.0,11.0,40,-99.99,,,-99.99,,2013-07-13 19:32:00,
2013-07-13 13:52:00,74.0,47.0,-100.00,WNW,282,8.0,9.0,39,-99.99,,,-99.99,,2013-07-13 19:52:00,
2013-07-13 14:01:00,74.0,47.0,-100.00,WNW,282,8.0,9.0,39,-99.99,,,-99.99,,2013-07-13 20:01:00,
2013-07-13 14:11:00,79.0,48.0,-100.00,WSW,250,0.0,1.0,33,-99.99,,,-99.99,,2013-07-13 20:11:00,
2013-07-13 14:22:00,79.0,48.0,-100.00,WSW,250,0.0,1.0,33,-99.99,,,-99.99,,2013-07-13 20:22:00,
2013-07-13 14:42:00,75.0,48.0,-100.00,West,274,9.0,18.0,37,-99.99,,,-99.99,,2013-07-13 20:42:00,
2013-07-13 14:52:00,78.0,44.0,-100.00,SW,217,4.0,18.0,30,-99.99,,,-99.99,,2013-07-13 20:52:00,
2013-07-13 15:11:00,76.0,48.0,-100.00,West,280,14.0,18.0,36,-99.99,,,-99.99,,2013-07-13 21:11:00,
2013-07-13 15:22:00,76.0,48.0,-100.00,West,280,14.0,18.0,36,-99.99,,,-99.99,,2013-07-13 21:22:00,
2013-07-13 15:53:00,77.0,46.0,-100.00,WNW,290,13.0,17.0,34,-99.99,,,-99.99,,2013-07-13 21:53:00,
2013-07-13 16:01:00,77.0,46.0,-100.00,WNW,290,13.0,17.0,34,-99.99,,,-99.99,,2013-07-13 22:01:00,
2013-07-13 16:21:00,78.0,46.0,-100.00,WNW,297,6.0,13.0,32,-99.99,,,-99.99,,2013-07-13 22:21:00,
2013-07-13 16:32:00,78.0,46.0,-100.00,WNW,297,6.0,13.0,32,-99.99,,,-99.99,,2013-07-13 22:32:00,
2013-07-13 16:43:00,79.0,46.0,-100.00,NW,305,5.0,12.0,31,-99.99,,,-99.99,,2013-07-13 22:43:00,
2013-07-13 16:53:00,79.0,46.0,-100.00,NW,305,5.0,12.0,31,-99.99,,,-99.99,,2013-07-13 22:53:00,
2013-07-13 17:11:00,78.0,47.0,-100.00,WNW,284,9.0,14.0,33,-99.99,,,-99.99,,2013-07-13 23:11:00,
2013-07-13 17:22:00,78.0,45.0,-100.00,WNW,282,11.0,16.0,31,-99.99,,,-99.99,,2013-07-13 23:22:00,
2013-07-13 17:42:00,79.0,46.0,-100.00,WNW,290,7.0,13.0,30,-99.99,,,-99.99,,2013-07-13 23:42:00,
2013-07-13 17:53:00,78.0,44.0,-100.00,West,274,11.0,15.0,30,-99.99,,,-99.99,,2013-07-13 23:53:00,
2013-07-13 18:01:00,80.0,43.0,-100.00,West,265,13.0,19.0,27,-99.99,,,-99.99,,2013-07-14 00:01:00,
2013-07-13 18:11:00,80.0,43.0,-100.00,West,265,13.0,19.0,27,-99.99,,,-99.99,,2013-07-14 00:11:00,
2013-07-13 18:21:00,79.0,42.0,-100.00,West,259,14.0,16.0,27,-99.99,,,-99.99,,2013-07-14 00:21:00,
2013-07-13 18:33:00,79.0,42.0,-100.00,West,259,14.0,16.0,27,-99.99,,,-99.99,,2013-07-14 00:33:00,
2013-07-13 18:42:00,76.0,47.0,-100.00,WSW,255,25.0,31.0,36,-99.99,,,-99.99,,2013-07-14 00:42:00,
2013-07-13 18:52:00,72.0,48.0,-100.00,WSW,250,26.0,32.0,43,-99.99,,,-99.99,,2013-07-14 00:52:00,
2013-07-13 19:32:00,66.0,54.0,-100.00,West,260,10.0,20.0,64,-99.99,,,-99.99,,2013-07-14 01:32:00,
2013-07-13 19:43:00,65.0,51.0,-100.00,West,275,13.0,18.0,59,-99.99,,,-99.99,,2013-07-14 01:43:00,
2013-07-13 19:52:00,65.0,51.0,-100.00,West,275,13.0,18.0,59,-99.99,,,-99.99,,2013-07-14 01:52:00,
2013-07-13 20:01:00,65.0,51.0,-100.00,West,275,13.0,18.0,59,-99.99,,,-99.99,,2013-07-14 02:01:00,
2013-07-13 20:11:00,67.0,49.0,-100.00,WSW,243,14.0,19.0,53,-99.99,,,-99.99,,2013-07-14 02:11:00,
2013-07-13 20:22:00,67.0,49.0,-100.00,WSW,243,14.0,19.0,53,-99.99,,,-99.99,,2013-07-14 02:22:00,
2013-07-13 20:32:00,67.0,49.0,-100.00,WSW,243,14.0,19.0,53,-99.99,,,-99.99,,2013-07-14 02:32:00,
2013-07-13 20:43:00,63.0,50.0,-100.00,WSW,240,11.0,17.0,61,-99.99,,,-99.99,,2013-07-14 02:43:00,
2013-07-13 20:53:00,63.0,50.0,-100.00,WSW,240,11.0,17.0,61,-99.99,,,-99.99,,2013-07-14 02:53:00,
2013-07-13 21:11:00,61.0,53.0,-100.00,ENE,63,7.0,14.0,74,-99.99,,,-99.99,,2013-07-14 03:11:00,
2013-07-13 21:22:00,61.0,53.0,-100.00,ENE,63,7.0,14.0,74,-99.99,,,-99.99,,2013-07-14 03:22:00,
2013-07-13 21:32:00,61.0,53.0,-100.00,ENE,63,7.0,14.0,74,-99.99,,,-99.99,,2013-07-14 03:32:00,
2013-07-13 21:53:00,61.0,53.0,-100.00,ENE,60,2.0,5.0,73,-99.99,,,-99.99,,2013-07-14 03:53:00,
2013-07-13 22:11:00,62.0,54.0,-100.00,SW,228,2.0,8.0,74,-99.99,,,-99.99,,2013-07-14 04:11:00,
2013-07-13 22:22:00,62.0,54.0,-100.00,SW,228,2.0,8.0,74,-99.99,,,-99.99,,2013-07-14 04:22:00,
2013-07-13 22:32:00,60.0,52.0,-100.00,WNW,303,5.0,6.0,76,-99.99,,,-99.99,,2013-07-14 04:32:00,
2013-07-13 22:42:00,59.0,52.0,-100.00,ENE,72,2.0,6.0,78,-99.99,,,-99.99,,2013-07-14 04:42:00,
2013-07-13 22:53:00,59.0,52.0,-100.00,ENE,72,2.0,6.0,78,-99.99,,,-99.99,,2013-07-14 04:53:00,
2013-07-13 23:11:00,59.0,53.0,-100.00,East,81,5.0,5.0,78,-99.99,,,-99.99,,2013-07-14 05:11:00,
2013-07-13 23:22:00,60.0,52.0,-100.00,ENE,68,2.0,6.0,75,-99.99,,,-99.99,,2013-07-14 05:22:00,
2013-07-13 23:32:00,59.0,51.0,-100.00,NE,48,2.0,6.0,75,-99.99,,,-99.99,,2013-07-14 05:32:00,
2013-07-13 23:43:00,59.0,51.0,-100.00,NE,48,2.0,6.0,75,-99.99,,,-99.99,,2013-07-14 05:43:00,
2013-07-13 23:53:00,59.0,51.0,-100.00,NE,41,3.0,5.0,76,-99.99,,,-99.99,,2013-07-14 05:53:00,